Strona główna
METAR-TAF:

METAR-TAF

Lotnisko :

Mont-Joli, Quebec, Kanada

Szerokość geograficzna: 48-36N, Długość geograficzna: 068-13W, wysokość: 48 m

Aktualna obserwacja pogody

Raport powstał 35 minut temu, godzina 23:00 UTC
Wiatr 3 kt od północny wschód
Temperatura 1°C
Wilgotność 80%
Ciśnienie 1017 hPa
Widzialność: 24.1 km
Przerywane chmury na wysokości 5300 ft

METAR: CYYY 042300Z 04003KT 15SM BKN053 01/M02 A3004 RMK SC6 SLP176

czas: 19:35 (23:35 UTC)

Prognoza

Raport powstał 3 godziny i 57 minut temu, godzina 19:38 UTC
Prognoza ważna od 04 godzina 20 UTC do 05 godzina 08 UTC
Wiatr 8 kt od wschód
Widzialność: 10 km
Zachmurzenie całkowite na wysokości 5000 ft
Od 05 godzina 0200 UTC
Wiatr 6 kt od południe
Widzialność: 10 km
Zachmurzenie całkowite na wysokości 4000 ft
Przejściowo
od 05 godzina 02 UTC do 05 godzina 08 UTC
Zachmurzenie całkowite na wysokości 2000 ft

TAF: CYYY 041938Z 0420/0508 08008KT P6SM OVC050 FM050200 17006KT P6SM OVC040 TEMPO 0502/0508 OVC020 RMK NXT FCST BY 050200Z

Obserwacja i prognoza pogody dla ponad 4000 lotnisk (raport METAR i TAF).

Dostępne stacje oznaczono żółtymi i czerwonymi punktami na mapie.

Najedź kursorem aby zobaczyć nazwę stacji.

Kliknij aby zobaczyć obserwacje i prognozy pogody.

Aby zmienić mapę: kliknij na zielony przycisk z czarnym krzyżykiem, aby powiększyć; na zielony przycisk z myślnikiem, aby pomniejszyć; na zielone strzałki, aby przejść do map sąsiednich.


METAR-TAF: